Time;durP1;ratioP1;P1;durP2;ratioP2;P2;SDS_P1;SDS_P2;PMS_P1;PMS_P2;Temp;Humidity;BMP_temperature;BMP_pressure;BME280_temperature;BME280_humidity;BME280_pressure;Samples;Min_cycle;Max_cycle;Signal;HPM_P1;HPM_P2
2022/06/27 00:01:34;;;;;;;5.38;2.85;;;18.20;81.10;;;;;;5072737;28;20715;-86
2022/06/27 00:03:59;;;;;;;4.85;2.40;;;18.20;80.90;;;;;;5072944;28;20178;-86
2022/06/27 00:06:25;;;;;;;4.57;2.67;;;18.30;80.80;;;;;;5071504;28;20202;-87
2022/06/27 00:08:50;;;;;;;4.57;2.30;;;18.30;80.50;;;;;;5073340;28;20189;-87
2022/06/27 00:11:18;;;;;;;5.00;2.58;;;18.30;80.30;;;;;;5071699;28;20191;-87
2022/06/27 00:13:44;;;;;;;5.30;2.50;;;18.40;80.20;;;;;;5072731;28;20622;-86
2022/06/27 00:16:10;;;;;;;5.20;2.58;;;18.40;80.10;;;;;;5072637;28;20175;-87
2022/06/27 00:18:37;;;;;;;6.03;2.47;;;18.40;80.10;;;;;;5072667;28;20168;-87
2022/06/27 00:21:03;;;;;;;8.02;2.63;;;18.50;80.20;;;;;;5072589;28;20239;-87
2022/06/27 00:23:29;;;;;;;5.30;2.67;;;18.40;80.20;;;;;;5072652;28;20240;-86
2022/06/27 00:25:54;;;;;;;6.78;2.50;;;18.50;80.40;;;;;;5072434;28;20725;-86
2022/06/27 00:28:20;;;;;;;4.50;2.45;;;18.50;80.30;;;;;;5072831;28;20174;-86
2022/06/27 00:30:45;;;;;;;3.90;2.30;;;18.50;80.20;;;;;;5072489;28;20191;-86
2022/06/27 00:33:11;;;;;;;3.65;2.28;;;18.50;80.00;;;;;;5072629;28;20223;-86
2022/06/27 00:35:37;;;;;;;3.42;2.28;;;18.50;80.00;;;;;;5072562;28;20175;-87
2022/06/27 00:38:02;;;;;;;4.43;2.63;;;18.50;80.20;;;;;;5074493;28;20173;-86
2022/06/27 00:40:28;;;;;;;3.45;1.98;;;18.50;80.20;;;;;;5076156;28;20194;-86
2022/06/27 00:42:54;;;;;;;5.00;2.47;;;18.50;80.20;;;;;;5076084;28;20190;-86
2022/06/27 00:45:20;;;;;;;3.90;2.63;;;18.40;80.20;;;;;;5076010;28;20199;-86
2022/06/27 00:47:45;;;;;;;4.40;2.72;;;18.40;80.50;;;;;;5074838;28;20637;-86
2022/06/27 00:50:11;;;;;;;3.10;2.33;;;18.40;80.60;;;;;;5076430;28;20226;-86
2022/06/27 00:52:37;;;;;;;6.57;2.65;;;18.40;80.60;;;;;;5076001;28;20163;-86
2022/06/27 00:55:04;;;;;;;6.88;2.58;;;18.40;80.50;;;;;;5074539;28;20182;-86
2022/06/27 00:57:31;;;;;;;4.18;2.72;;;18.50;80.50;;;;;;5075739;28;20274;-86
2022/06/27 00:59:57;;;;;;;3.17;2.70;;;18.50;80.40;;;;;;5075711;28;20175;-86
2022/06/27 01:02:22;;;;;;;4.53;2.53;;;18.50;80.30;;;;;;5075770;28;20170;-86
2022/06/27 01:04:48;;;;;;;5.45;2.53;;;18.50;80.30;;;;;;5075598;28;20232;-86
2022/06/27 01:07:13;;;;;;;3.97;2.63;;;18.60;80.30;;;;;;5075730;28;20176;-86
2022/06/27 01:09:40;;;;;;;2.83;2.40;;;18.70;80.20;;;;;;5075590;28;20167;-86
2022/06/27 01:12:07;;;;;;;6.13;3.00;;;18.70;80.10;;;;;;5074300;28;20629;-86
2022/06/27 01:14:32;;;;;;;6.18;2.67;;;18.60;80.10;;;;;;5075425;28;20258;-86
2022/06/27 01:16:58;;;;;;;5.55;2.67;;;18.50;81.00;;;;;;5075438;28;20254;-86
2022/06/27 01:19:25;;;;;;;5.50;3.10;;;18.40;81.70;;;;;;5075778;28;20207;-85
2022/06/27 01:21:53;;;;;;;3.10;2.80;;;18.40;82.20;;;;;;5075344;28;20195;-87
2022/06/27 01:24:21;;;;;;;8.63;3.90;;;18.40;82.70;;;;;;5075402;28;20195;-86
2022/06/27 01:26:48;;;;;;;8.75;3.58;;;18.50;83.10;;;;;;5075301;28;20195;-87
2022/06/27 01:29:14;;;;;;;13.40;4.47;;;18.40;84.70;;;;;;5075559;28;20601;-86
2022/06/27 01:31:40;;;;;;;9.15;3.88;;;18.20;85.80;;;;;;5075447;28;20219;-86
2022/06/27 01:34:07;;;;;;;7.85;3.58;;;17.90;86.90;;;;;;5075958;28;20171;-86
2022/06/27 01:36:41;;;;;;;5.93;3.72;;;17.80;87.30;;;;;;5075725;28;20194;-86
2022/06/27 01:39:11;;;;;;;5.78;4.10;;;17.80;87.40;;;;;;5075930;28;20151;-86
2022/06/27 01:41:42;;;;;;;6.30;4.03;;;17.70;87.60;;;;;;5075196;28;20579;-86
2022/06/27 01:44:09;;;;;;;5.80;4.10;;;17.60;87.60;;;;;;5075617;28;20714;-87
2022/06/27 01:46:57;;;;;;;4.85;3.83;;;17.50;87.70;;;;;;5074997;28;20210;-86
2022/06/27 01:49:22;;;;;;;14.02;4.90;;;17.30;88.00;;;;;;5074555;28;20239;-86
2022/06/27 01:51:50;;;;;;;9.35;4.80;;;17.20;88.70;;;;;;5075383;28;20227;-86
2022/06/27 01:54:18;;;;;;;10.80;4.57;;;17.10;89.40;;;;;;5074906;28;20183;-87
2022/06/27 01:56:46;;;;;;;10.80;4.65;;;17.20;89.50;;;;;;5074639;28;20661;-87
2022/06/27 01:59:13;;;;;;;11.25;5.22;;;17.10;89.20;;;;;;5074750;28;20176;-87
2022/06/27 02:01:40;;;;;;;8.50;4.75;;;16.90;89.90;;;;;;5074430;28;20195;-87
2022/06/27 02:04:06;;;;;;;7.32;5.00;;;16.80;89.60;;;;;;5073437;28;20542;-88
2022/06/27 02:06:32;;;;;;;7.03;4.35;;;16.80;89.50;;;;;;5074464;28;20203;-88
2022/06/27 02:08:58;;;;;;;6.20;4.20;;;16.90;89.40;;;;;;5074556;28;20179;-86
2022/06/27 02:11:25;;;;;;;8.10;3.50;;;16.80;89.00;;;;;;5074393;28;20262;-87
2022/06/27 02:13:52;;;;;;;7.63;4.03;;;16.60;89.10;;;;;;5074401;28;20574;-87
2022/06/27 02:16:19;;;;;;;6.05;3.92;;;16.60;89.20;;;;;;5074572;28;20175;-87
2022/06/27 02:18:46;;;;;;;12.23;3.60;;;16.60;89.20;;;;;;5074411;28;20211;-88
2022/06/27 02:21:15;;;;;;;7.32;3.45;;;16.50;89.20;;;;;;5074484;28;20183;-87
2022/06/27 02:23:42;;;;;;;8.40;3.20;;;16.60;89.00;;;;;;5074498;28;20167;-87
2022/06/27 02:26:09;;;;;;;4.05;2.60;;;16.40;88.80;;;;;;5074173;28;20252;-88
2022/06/27 02:28:35;;;;;;;4.25;2.30;;;16.40;88.30;;;;;;5072849;28;20178;-87
2022/06/27 02:31:01;;;;;;;6.80;2.65;;;16.30;88.20;;;;;;5073990;28;20554;-87
2022/06/27 02:33:38;;;;;;;6.13;2.60;;;16.20;87.70;;;;;;5074095;28;20171;-87
2022/06/27 02:36:06;;;;;;;11.23;2.88;;;16.20;87.30;;;;;;5074107;28;20217;-88
2022/06/27 02:38:32;;;;;;;7.57;2.50;;;16.00;86.80;;;;;;5074001;28;20185;-87
2022/06/27 02:41:01;;;;;;;5.03;2.20;;;15.90;87.20;;;;;;5073932;28;20202;-88
2022/06/27 02:43:29;;;;;;;6.13;2.10;;;15.80;87.20;;;;;;5073756;28;20182;-87
2022/06/27 02:45:55;;;;;;;5.57;2.42;;;15.60;87.00;;;;;;5073939;28;20236;-89
2022/06/27 02:48:24;;;;;;;4.43;2.13;;;15.10;88.50;;;;;;5072552;28;20716;-89
2022/06/27 02:50:54;;;;;;;5.13;2.37;;;14.80;89.40;;;;;;5073687;28;20179;-89
2022/06/27 02:53:25;;;;;;;4.27;2.67;;;14.70;89.90;;;;;;5074270;28;20167;-88
2022/06/27 02:55:53;;;;;;;7.57;3.10;;;14.60;90.40;;;;;;5074088;28;20527;-88
2022/06/27 02:58:27;;;;;;;4.77;2.67;;;14.60;91.00;;;;;;5073632;28;20214;-88
2022/06/27 03:00:55;;;;;;;8.07;2.97;;;14.50;91.40;;;;;;5072313;28;20201;-88
2022/06/27 03:03:24;;;;;;;5.03;2.87;;;14.50;91.70;;;;;;5073769;28;20179;-88
2022/06/27 03:06:00;;;;;;;4.37;2.83;;;14.50;92.00;;;;;;5073461;28;20290;-88
2022/06/27 03:08:39;;;;;;;7.33;3.37;;;14.60;92.10;;;;;;5073819;28;20163;-88
2022/06/27 03:11:05;;;;;;;6.83;3.17;;;14.70;92.20;;;;;;5073687;28;20206;-87
2022/06/27 03:13:31;;;;;;;7.63;3.70;;;14.70;92.30;;;;;;5072269;28;20584;-88
2022/06/27 03:15:56;;;;;;;9.30;3.00;;;14.70;92.40;;;;;;5073455;28;20222;-87
2022/06/27 03:18:22;;;;;;;5.03;3.30;;;14.80;92.50;;;;;;5073332;28;20651;-88
2022/06/27 03:20:48;;;;;;;5.87;3.50;;;14.80;92.70;;;;;;5073115;28;20221;-88
2022/06/27 03:23:15;;;;;;;6.90;3.77;;;14.80;92.70;;;;;;5073616;28;20252;-88
2022/06/27 03:25:41;;;;;;;5.43;3.27;;;14.80;92.80;;;;;;5073277;28;20310;-88
2022/06/27 03:28:07;;;;;;;3.60;3.30;;;14.90;92.90;;;;;;5073302;28;20635;-87
2022/06/27 03:30:32;;;;;;;5.90;3.67;;;14.90;92.90;;;;;;5073158;28;20274;-88
2022/06/27 03:32:58;;;;;;;5.73;3.50;;;14.90;93.00;;;;;;5073156;28;20193;-88
2022/06/27 03:35:24;;;;;;;4.17;3.57;;;14.90;93.10;;;;;;5073999;28;20645;-87
2022/06/27 03:37:50;;;;;;;4.90;3.80;;;15.00;93.10;;;;;;5073256;28;20186;-87
2022/06/27 03:40:16;;;;;;;6.87;4.00;;;15.10;93.20;;;;;;5073012;28;20199;-88
2022/06/27 03:42:42;;;;;;;8.03;3.97;;;15.20;93.30;;;;;;5073061;28;20645;-87
2022/06/27 03:45:08;;;;;;;7.50;3.15;;;15.20;93.30;;;;;;5073018;28;20201;-87
2022/06/27 03:47:48;;;;;;;5.30;3.53;;;15.30;93.30;;;;;;5072993;28;20178;-87
2022/06/27 03:50:14;;;;;;;4.85;3.22;;;15.40;93.30;;;;;;5071775;28;20221;-87
2022/06/27 03:52:41;;;;;;;4.75;3.35;;;15.50;93.30;;;;;;5072989;28;20207;-87
2022/06/27 03:55:08;;;;;;;4.47;3.13;;;15.60;93.20;;;;;;5072914;28;20178;-87
2022/06/27 03:57:36;;;;;;;4.97;2.90;;;15.60;93.20;;;;;;5071540;28;20563;-87
2022/06/27 04:00:03;;;;;;;5.03;3.05;;;15.50;93.00;;;;;;5073094;28;20213;-87
2022/06/27 04:02:29;;;;;;;4.30;2.65;;;15.50;93.00;;;;;;5072851;28;20233;-87
2022/06/27 04:04:54;;;;;;;10.98;3.05;;;15.50;92.70;;;;;;5071653;28;20191;-87
2022/06/27 04:07:20;;;;;;;3.63;2.83;;;15.60;92.80;;;;;;5072903;28;20254;-87
2022/06/27 04:09:45;;;;;;;8.23;2.75;;;15.60;92.60;;;;;;5072736;28;20168;-87
2022/06/27 04:12:11;;;;;;;6.22;2.65;;;15.50;92.30;;;;;;5073568;28;20642;-87
2022/06/27 04:14:37;;;;;;;2.70;2.33;;;15.60;92.50;;;;;;5076795;28;20265;-87
2022/06/27 04:17:03;;;;;;;5.60;3.00;;;15.70;92.40;;;;;;5076903;28;20182;-87
2022/06/27 04:19:29;;;;;;;4.28;2.80;;;15.60;92.20;;;;;;5076633;28;20179;-87
2022/06/27 04:21:54;;;;;;;6.88;3.17;;;15.50;92.10;;;;;;5076562;28;20194;-87
2022/06/27 04:24:20;;;;;;;3.05;2.47;;;15.30;92.00;;;;;;5076694;28;20649;-88
2022/06/27 04:26:46;;;;;;;5.60;3.10;;;15.20;92.20;;;;;;5076390;28;20272;-87
2022/06/27 04:29:12;;;;;;;8.18;3.45;;;15.10;92.40;;;;;;5076345;28;20254;-87
2022/06/27 04:31:37;;;;;;;3.60;3.10;;;15.10;92.50;;;;;;5076416;28;20199;-87
2022/06/27 04:34:04;;;;;;;6.28;3.17;;;15.10;92.70;;;;;;5076341;28;20168;-86
2022/06/27 04:36:30;;;;;;;6.03;3.40;;;15.10;92.70;;;;;;5076843;28;20195;-86
2022/06/27 04:38:56;;;;;;;4.60;3.25;;;15.00;92.80;;;;;;5076330;28;20606;-86
2022/06/27 04:41:22;;;;;;;4.55;3.30;;;15.10;92.90;;;;;;5076127;28;20199;-86
2022/06/27 04:43:47;;;;;;;6.20;3.30;;;15.20;93.00;;;;;;5076193;28;20175;-87
2022/06/27 04:46:13;;;;;;;6.28;3.33;;;15.30;93.10;;;;;;5076293;28;20195;-86
2022/06/27 04:48:39;;;;;;;5.00;2.90;;;15.30;93.00;;;;;;5076131;28;20167;-86
2022/06/27 04:51:06;;;;;;;6.57;3.08;;;15.30;92.80;;;;;;5076209;28;20279;-86
2022/06/27 04:53:33;;;;;;;5.18;2.78;;;15.30;92.70;;;;;;5076037;28;20163;-86
2022/06/27 04:55:59;;;;;;;4.70;3.17;;;15.30;92.60;;;;;;5075943;28;20641;-87
2022/06/27 04:58:24;;;;;;;3.63;2.50;;;15.40;92.40;;;;;;5076212;28;20178;-86
2022/06/27 05:00:50;;;;;;;3.97;2.53;;;15.30;92.30;;;;;;5075745;28;20270;-87
2022/06/27 05:03:15;;;;;;;12.40;2.92;;;15.40;92.30;;;;;;5075837;28;20179;-87
2022/06/27 05:05:41;;;;;;;7.47;3.40;;;15.50;92.20;;;;;;5075669;28;20565;-86
2022/06/27 05:08:07;;;;;;;4.53;2.85;;;15.50;92.10;;;;;;5075964;28;20175;-86
2022/06/27 05:10:32;;;;;;;7.93;3.15;;;15.50;91.80;;;;;;5075838;28;20657;-87
2022/06/27 05:12:59;;;;;;;3.75;2.78;;;15.50;91.70;;;;;;5075906;28;20266;-87
2022/06/27 05:15:25;;;;;;;5.55;2.88;;;15.60;91.70;;;;;;5075716;28;20641;-86
2022/06/27 05:17:51;;;;;;;13.07;3.00;;;15.70;91.70;;;;;;5075778;28;20223;-86
2022/06/27 05:20:17;;;;;;;7.20;2.97;;;15.60;91.30;;;;;;5075421;28;20191;-87
2022/06/27 05:22:42;;;;;;;9.00;3.10;;;15.60;91.30;;;;;;5075703;28;20532;-86
2022/06/27 05:25:09;;;;;;;4.55;3.10;;;15.50;91.20;;;;;;5072863;28;20199;-86
2022/06/27 05:27:35;;;;;;;3.47;3.10;;;15.50;91.30;;;;;;5075324;28;20164;-87
2022/06/27 05:30:04;;;;;;;4.13;3.00;;;15.50;91.40;;;;;;5075294;28;20564;-86
2022/06/27 05:32:29;;;;;;;4.30;3.22;;;15.50;91.40;;;;;;5075187;28;20174;-86
2022/06/27 05:34:55;;;;;;;5.53;2.72;;;15.50;91.40;;;;;;5075257;28;20167;-86
2022/06/27 05:37:21;;;;;;;6.23;3.70;;;15.30;91.60;;;;;;5075218;28;20172;-85
2022/06/27 05:39:46;;;;;;;4.55;3.60;;;15.20;91.90;;;;;;5075016;28;20172;-86
2022/06/27 05:42:12;;;;;;;4.53;3.42;;;15.30;92.00;;;;;;5075119;28;20175;-86
2022/06/27 05:44:38;;;;;;;4.05;3.40;;;15.30;92.00;;;;;;5074989;28;20522;-86
2022/06/27 05:47:04;;;;;;;4.88;3.50;;;15.30;91.90;;;;;;5074820;28;20197;-86
2022/06/27 05:49:30;;;;;;;4.85;3.58;;;15.20;91.80;;;;;;5073629;28;20179;-86
2022/06/27 05:51:58;;;;;;;5.50;3.67;;;15.20;92.00;;;;;;5074753;28;20261;-86
2022/06/27 05:54:24;;;;;;;4.13;3.70;;;15.20;92.30;;;;;;5073479;28;20171;-86
2022/06/27 05:56:50;;;;;;;5.77;3.60;;;15.30;92.40;;;;;;5074679;28;20187;-86
2022/06/27 05:59:17;;;;;;;3.60;3.27;;;15.30;92.20;;;;;;5073511;28;20211;-87
2022/06/27 06:01:45;;;;;;;4.53;3.93;;;15.10;92.20;;;;;;5074705;28;20266;-86
2022/06/27 06:04:10;;;;;;;5.22;3.97;;;15.00;92.50;;;;;;5075164;28;20172;-86
2022/06/27 06:06:36;;;;;;;9.55;4.20;;;15.10;92.70;;;;;;5074955;28;20183;-86
2022/06/27 06:09:03;;;;;;;8.93;3.88;;;15.20;92.90;;;;;;5074677;28;20199;-89
2022/06/27 06:11:30;;;;;;;7.43;4.10;;;15.30;93.00;;;;;;5074817;28;20557;-87
2022/06/27 06:13:56;;;;;;;4.25;3.80;;;15.20;92.80;;;;;;5075670;28;20164;-87
2022/06/27 06:16:22;;;;;;;4.20;3.47;;;15.10;92.90;;;;;;5075694;28;20176;-87
2022/06/27 06:18:52;;;;;;;5.27;3.80;;;15.20;93.00;;;;;;5075107;28;20261;-87
2022/06/27 06:21:22;;;;;;;6.83;3.97;;;15.30;92.90;;;;;;5073525;28;20334;-87
2022/06/27 06:23:51;;;;;;;6.23;3.70;;;15.40;93.00;;;;;;5074950;28;20179;-87
2022/06/27 06:26:19;;;;;;;7.07;4.33;;;15.40;93.00;;;;;;5075178;28;20222;-88
2022/06/27 06:28:46;;;;;;;6.40;4.30;;;15.50;93.00;;;;;;5074912;28;20171;-87
2022/06/27 06:31:15;;;;;;;8.20;4.10;;;15.50;93.00;;;;;;5074482;28;20184;-87
2022/06/27 06:33:41;;;;;;;4.82;4.30;;;15.60;93.00;;;;;;5074183;28;20175;-87
2022/06/27 06:36:07;;;;;;;5.30;4.28;;;15.70;93.00;;;;;;5074003;28;20177;-87
2022/06/27 06:38:33;;;;;;;5.73;4.60;;;15.60;92.80;;;;;;5074130;28;20262;-87
2022/06/27 06:40:58;;;;;;;7.53;4.85;;;15.60;93.00;;;;;;5074935;28;20245;-87
2022/06/27 06:43:24;;;;;;;5.35;4.78;;;15.70;93.00;;;;;;5074326;28;20229;-87
2022/06/27 06:45:50;;;;;;;8.45;5.32;;;15.70;93.00;;;;;;5072991;28;20568;-87
2022/06/27 06:48:17;;;;;;;9.07;4.88;;;15.80;93.00;;;;;;5074483;28;20166;-87
2022/06/27 06:50:43;;;;;;;10.65;5.03;;;15.90;93.00;;;;;;5073981;28;20187;-88
2022/06/27 06:53:08;;;;;;;7.30;5.50;;;16.00;93.00;;;;;;5072514;28;20171;-87
2022/06/27 06:55:34;;;;;;;5.25;4.65;;;16.10;92.90;;;;;;5074979;28;20172;-87
2022/06/27 06:57:59;;;;;;;5.95;5.10;;;16.10;93.00;;;;;;5073920;28;20199;-87
2022/06/27 07:00:25;;;;;;;10.60;5.30;;;16.10;92.80;;;;;;5073947;28;20296;-88
2022/06/27 07:02:52;;;;;;;8.85;5.47;;;16.20;92.80;;;;;;5073838;28;20595;-87
2022/06/27 07:05:19;;;;;;;9.18;5.53;;;16.20;92.70;;;;;;5073561;28;20599;-88
2022/06/27 07:07:47;;;;;;;5.90;5.25;;;16.30;92.70;;;;;;5072290;28;20167;-88
2022/06/27 07:10:13;;;;;;;6.07;4.80;;;16.40;92.70;;;;;;5073423;28;20197;-87
2022/06/27 07:12:40;;;;;;;5.65;4.75;;;16.40;92.60;;;;;;5073727;28;20171;-87
2022/06/27 07:15:09;;;;;;;6.88;6.18;;;16.50;92.50;;;;;;5072199;28;20171;-87
2022/06/27 07:17:40;;;;;;;7.70;5.28;;;16.50;92.30;;;;;;5073623;28;20167;-86
2022/06/27 07:20:07;;;;;;;5.80;5.18;;;16.40;92.10;;;;;;5072706;28;20627;-88
2022/06/27 07:22:34;;;;;;;8.57;5.03;;;16.40;92.10;;;;;;5072618;28;20705;-88
2022/06/27 07:25:00;;;;;;;6.03;5.45;;;16.50;92.00;;;;;;5073512;28;20221;-88
2022/06/27 07:27:25;;;;;;;11.57;5.95;;;16.50;91.90;;;;;;5073394;28;20175;-88
2022/06/27 07:29:51;;;;;;;7.32;5.93;;;16.50;91.80;;;;;;5073420;28;20170;-86
2022/06/27 07:32:18;;;;;;;8.13;5.60;;;16.40;91.60;;;;;;5073209;28;20163;-85
2022/06/27 07:34:43;;;;;;;6.60;5.40;;;16.40;91.70;;;;;;5073349;28;20172;-86
2022/06/27 07:37:09;;;;;;;6.43;5.22;;;16.40;91.60;;;;;;5073306;28;20164;-88
2022/06/27 07:39:35;;;;;;;5.88;5.15;;;16.40;91.60;;;;;;5073203;28;20159;-86
2022/06/27 07:42:01;;;;;;;6.15;5.20;;;16.40;91.50;;;;;;5072981;28;20266;-86
2022/06/27 07:44:27;;;;;;;7.90;5.22;;;16.30;91.40;;;;;;5071954;28;20183;-86
2022/06/27 07:46:52;;;;;;;8.00;5.57;;;16.50;91.40;;;;;;5073118;28;20187;-87
2022/06/27 07:49:18;;;;;;;6.05;5.10;;;16.50;91.40;;;;;;5077556;28;20175;-86
2022/06/27 07:51:44;;;;;;;7.80;5.75;;;16.50;91.20;;;;;;5077150;28;20191;-87
2022/06/27 07:54:10;;;;;;;11.15;5.65;;;16.50;91.30;;;;;;5077060;28;20282;-86
2022/06/27 07:56:37;;;;;;;8.50;6.07;;;16.50;91.10;;;;;;5077008;28;20187;-86
2022/06/27 07:59:06;;;;;;;11.70;6.00;;;16.60;91.40;;;;;;5076958;28;20592;-88
2022/06/27 08:01:32;;;;;;;6.60;5.95;;;16.50;91.10;;;;;;5075718;28;20194;-87
2022/06/27 08:03:57;;;;;;;7.00;6.28;;;16.40;91.10;;;;;;5077229;28;20645;-87
2022/06/27 08:06:26;;;;;;;9.10;5.93;;;16.30;91.30;;;;;;5077381;28;20206;-87
2022/06/27 08:08:54;;;;;;;7.32;6.57;;;16.40;91.60;;;;;;5077350;28;20197;-88
2022/06/27 08:11:22;;;;;;;8.93;6.55;;;16.40;91.70;;;;;;5076917;28;20191;-87
2022/06/27 08:13:49;;;;;;;10.30;7.00;;;16.50;91.90;;;;;;5078060;28;20529;-87
2022/06/27 08:16:18;;;;;;;8.60;6.78;;;16.50;91.80;;;;;;5076938;28;20174;-85
2022/06/27 08:18:47;;;;;;;9.73;7.75;;;16.50;91.70;;;;;;5077169;28;20175;-86
2022/06/27 08:21:17;;;;;;;10.38;7.18;;;16.50;91.70;;;;;;5076651;28;20199;-88
2022/06/27 08:23:44;;;;;;;9.00;7.80;;;16.40;91.80;;;;;;5075949;28;20175;-87
2022/06/27 08:26:12;;;;;;;11.65;7.80;;;16.30;91.80;;;;;;5076492;28;20187;-87
2022/06/27 08:28:39;;;;;;;11.15;7.45;;;16.40;92.10;;;;;;5076591;28;20514;-87
2022/06/27 08:31:12;;;;;;;10.85;7.63;;;16.50;92.00;;;;;;5075135;28;20202;-88
2022/06/27 08:33:39;;;;;;;15.05;8.05;;;16.50;92.20;;;;;;5076425;28;20148;-87
2022/06/27 08:36:06;;;;;;;10.20;8.07;;;16.50;92.20;;;;;;5075081;28;20596;-88
2022/06/27 08:38:48;;;;;;;10.60;8.48;;;16.60;92.30;;;;;;5076376;28;20179;-87
2022/06/27 08:41:14;;;;;;;12.68;8.18;;;16.70;92.60;;;;;;5076113;28;20241;-88
2022/06/27 08:43:41;;;;;;;16.65;8.82;;;16.70;92.50;;;;;;5075301;28;20182;-87
2022/06/27 08:46:08;;;;;;;11.13;8.15;;;16.70;92.40;;;;;;5076207;28;20219;-88
2022/06/27 08:48:37;;;;;;;9.23;8.00;;;16.80;92.50;;;;;;5076142;28;20167;-88
2022/06/27 08:51:06;;;;;;;16.77;9.93;;;16.70;92.30;;;;;;5076114;28;20216;-88
2022/06/27 08:53:33;;;;;;;12.00;10.60;;;16.60;92.20;;;;;;5074782;28;20186;-87
2022/06/27 08:55:59;;;;;;;14.32;12.20;;;16.60;92.40;;;;;;5075911;28;20171;-87
2022/06/27 08:58:27;;;;;;;16.77;11.65;;;16.70;92.60;;;;;;5076001;28;20171;-87
2022/06/27 09:00:53;;;;;;;16.05;11.63;;;16.80;92.80;;;;;;5075810;28;20194;-88
2022/06/27 09:03:20;;;;;;;14.45;12.23;;;16.70;92.70;;;;;;5075920;28;20167;-88
2022/06/27 09:06:03;;;;;;;16.70;13.52;;;16.60;92.60;;;;;;5076152;28;20285;-88
2022/06/27 09:08:32;;;;;;;18.63;14.00;;;16.70;92.80;;;;;;5076232;28;20610;-88
2022/06/27 09:11:00;;;;;;;20.05;14.98;;;16.80;93.00;;;;;;5075615;28;20187;-88
2022/06/27 09:13:27;;;;;;;18.73;14.77;;;16.70;92.80;;;;;;5075712;28;20218;-88
2022/06/27 09:15:59;;;;;;;17.98;14.68;;;16.60;92.70;;;;;;5075660;28;20171;-87
2022/06/27 09:18:30;;;;;;;18.67;14.48;;;16.80;93.00;;;;;;5075869;28;20167;-87
2022/06/27 09:20:59;;;;;;;16.08;13.63;;;16.90;92.90;;;;;;5075450;28;20198;-87
2022/06/27 09:23:41;;;;;;;19.77;14.65;;;16.80;92.70;;;;;;5075487;28;20179;-88
2022/06/27 09:26:19;;;;;;;18.95;15.23;;;16.80;92.60;;;;;;5075444;28;20539;-87
2022/06/27 09:28:55;;;;;;;18.50;14.82;;;17.00;92.70;;;;;;5075437;28;20250;-88
2022/06/27 09:31:28;;;;;;;17.10;14.77;;;17.00;92.40;;;;;;5075314;28;20665;-88
2022/06/27 09:34:17;;;;;;;18.23;13.70;;;17.10;92.50;;;;;;5074195;28;20543;-88
2022/06/27 09:36:46;;;;;;;15.18;13.68;;;17.10;92.30;;;;;;5075851;28;20161;-88
2022/06/27 09:39:36;;;;;;;16.77;13.93;;;17.20;92.20;;;;;;5075562;28;20179;-87
2022/06/27 09:42:04;;;;;;;17.02;12.85;;;17.10;91.90;;;;;;5075167;28;20218;-88
2022/06/27 09:44:35;;;;;;;15.60;13.52;;;17.20;92.00;;;;;;5075139;28;20168;-87
2022/06/27 09:47:04;;;;;;;14.80;12.50;;;17.20;91.80;;;;;;5075276;28;20179;-88
2022/06/27 09:49:32;;;;;;;17.50;12.65;;;17.20;91.60;;;;;;5075006;28;20171;-88
2022/06/27 09:51:59;;;;;;;14.68;12.88;;;17.10;91.80;;;;;;5075268;28;20194;-87
2022/06/27 09:54:26;;;;;;;17.95;14.98;;;17.20;92.10;;;;;;5074780;28;20523;-87
2022/06/27 09:56:54;;;;;;;21.70;15.15;;;17.10;92.00;;;;;;5074816;28;20588;-87
2022/06/27 09:59:21;;;;;;;23.05;14.98;;;17.20;92.20;;;;;;5073562;28;20671;-88
2022/06/27 10:01:49;;;;;;;17.15;13.85;;;17.20;92.40;;;;;;5074835;28;20243;-88
2022/06/27 10:04:15;;;;;;;19.70;15.02;;;17.30;92.40;;;;;;5075034;28;20530;-88
2022/06/27 10:06:42;;;;;;;19.38;15.25;;;17.40;92.40;;;;;;5074532;28;20607;-87
2022/06/27 10:09:09;;;;;;;21.17;15.88;;;17.20;92.20;;;;;;5074700;28;20174;-88
2022/06/27 10:11:36;;;;;;;25.38;15.82;;;17.30;92.30;;;;;;5073911;28;20668;-88
2022/06/27 10:14:18;;;;;;;22.75;15.35;;;17.10;92.20;;;;;;5074489;28;20190;-88
2022/06/27 10:17:00;;;;;;;26.20;17.58;;;17.00;92.50;;;;;;5074453;28;20160;-87
2022/06/27 10:19:27;;;;;;;27.35;18.73;;;17.00;92.60;;;;;;5074737;28;20163;-87
2022/06/27 10:21:54;;;;;;;29.73;19.75;;;16.90;92.80;;;;;;5074278;28;20198;-87
2022/06/27 10:24:26;;;;;;;31.85;22.02;;;16.80;93.00;;;;;;5074244;28;20258;-87
2022/06/27 10:26:54;;;;;;;28.85;19.98;;;16.80;93.20;;;;;;5074265;28;20179;-87
2022/06/27 10:29:33;;;;;;;32.60;20.23;;;16.90;93.30;;;;;;5074221;28;20170;-87
2022/06/27 10:32:04;;;;;;;28.52;20.58;;;17.00;93.40;;;;;;5074130;28;20561;-88
2022/06/27 10:34:43;;;;;;;30.52;20.65;;;17.10;93.40;;;;;;5074163;28;20162;-88
2022/06/27 10:37:24;;;;;;;31.67;20.75;;;17.00;93.30;;;;;;5074599;28;20164;-87
2022/06/27 10:40:14;;;;;;;31.48;20.85;;;16.90;93.40;;;;;;5074314;28;20254;-89
2022/06/27 10:42:55;;;;;;;32.55;21.95;;;16.90;93.50;;;;;;5073910;28;20176;-86
2022/06/27 10:45:21;;;;;;;33.35;24.08;;;17.00;93.60;;;;;;5074262;28;20175;-89
2022/06/27 10:47:51;;;;;;;35.25;23.40;;;17.10;93.70;;;;;;5074129;28;20175;-88
2022/06/27 10:50:19;;;;;;;30.75;22.95;;;17.10;93.70;;;;;;5073847;28;20187;-88
2022/06/27 10:52:46;;;;;;;31.33;22.00;;;17.10;93.70;;;;;;5073963;28;20270;-88
2022/06/27 10:55:24;;;;;;;29.67;20.77;;;17.20;93.80;;;;;;5074264;28;20629;-89
2022/06/27 10:57:51;;;;;;;33.42;20.00;;;17.20;93.70;;;;;;5073663;28;20215;-88
2022/06/27 11:00:50;;;;;;;25.67;19.27;;;17.20;93.60;;;;;;5073623;28;20195;-88
2022/06/27 11:03:26;;;;;;;26.65;19.60;;;17.30;93.60;;;;;;5072496;28;20264;-88
2022/06/27 11:06:01;;;;;;;27.75;20.75;;;17.50;93.60;;;;;;5072202;28;20205;-89
2022/06/27 11:08:28;;;;;;;29.17;18.27;;;17.40;93.30;;;;;;5073944;28;20163;-89
2022/06/27 11:10:53;;;;;;;24.17;17.67;;;17.50;93.50;;;;;;5073442;28;20229;-88
2022/06/27 11:13:39;;;;;;;31.88;20.08;;;17.60;93.40;;;;;;5073588;28;20202;-88
2022/06/27 11:16:06;;;;;;;29.70;19.50;;;17.30;93.00;;;;;;5073534;28;20175;-88
2022/06/27 11:18:45;;;;;;;30.70;20.13;;;17.60;93.40;;;;;;5073419;28;20171;-88
2022/06/27 11:21:12;;;;;;;28.40;19.33;;;17.70;93.40;;;;;;5073311;28;20202;-89
2022/06/27 11:24:03;;;;;;;26.90;19.95;;;17.70;93.20;;;;;;5073637;28;20163;-89
2022/06/27 11:26:38;;;;;;;25.73;19.02;;;17.70;92.90;;;;;;5073319;28;20183;-89
2022/06/27 11:32:02;;;;;;;25.20;19.73;;;18.00;92.90;;;;;;5065767;28;20207;-89
2022/06/27 11:34:31;;;;;;;26.27;19.10;;;18.10;92.80;;;;;;5073443;28;20171;-89
2022/06/27 11:36:58;;;;;;;22.33;18.30;;;18.00;92.50;;;;;;5072910;28;20269;-91
2022/06/27 11:39:56;;;;;;;23.38;18.15;;;18.00;92.50;;;;;;5073095;28;20179;-89
2022/06/27 11:42:31;;;;;;;21.10;17.63;;;18.00;92.30;;;;;;5074730;28;20250;-91
2022/06/27 11:45:08;;;;;;;25.77;18.00;;;18.20;92.00;;;;;;5072774;28;20212;-91
2022/06/27 11:47:37;;;;;;;23.77;18.42;;;17.80;91.90;;;;;;5073916;28;20167;-89
2022/06/27 11:50:06;;;;;;;24.42;18.75;;;17.90;92.20;;;;;;5073806;28;20230;-90
2022/06/27 11:52:40;;;;;;;21.15;17.95;;;18.10;92.30;;;;;;5073649;28;20163;-90
2022/06/27 11:55:15;;;;;;;23.58;19.10;;;18.20;91.90;;;;;;5073203;28;20170;-90
2022/06/27 11:57:47;;;;;;;22.02;17.75;;;18.40;92.00;;;;;;5073097;28;20225;-91
2022/06/27 12:00:18;;;;;;;19.98;17.10;;;18.20;91.20;;;;;;5071812;28;20222;-90
2022/06/27 12:02:44;;;;;;;18.73;16.25;;;18.20;91.00;;;;;;5073272;28;20162;-90
2022/06/27 12:05:21;;;;;;;22.50;18.08;;;18.30;91.50;;;;;;5073085;28;20167;-90
2022/06/27 12:08:16;;;;;;;22.75;17.63;;;18.60;91.50;;;;;;5073080;28;20171;-90
2022/06/27 12:10:45;;;;;;;21.75;16.73;;;18.80;91.20;;;;;;5067306;28;20206;-90
2022/06/27 12:13:13;;;;;;;24.48;17.35;;;18.80;90.60;;;;;;5072957;28;20163;-90
2022/06/27 12:15:40;;;;;;;18.10;15.90;;;18.80;90.40;;;;;;5073147;28;20187;-90
2022/06/27 12:18:06;;;;;;;18.90;16.40;;;19.00;90.40;;;;;;5073765;28;20183;-89
2022/06/27 12:20:33;;;;;;;20.63;16.58;;;19.20;90.30;;;;;;5073825;28;20216;-89
2022/06/27 12:23:00;;;;;;;18.90;16.60;;;19.20;90.10;;;;;;5073875;28;20194;-90
2022/06/27 12:25:26;;;;;;;18.33;16.42;;;19.20;89.50;;;;;;5071891;28;20195;-89
2022/06/27 12:27:52;;;;;;;17.27;15.65;;;19.20;89.60;;;;;;5071691;28;20175;-90
2022/06/27 12:30:18;;;;;;;19.23;16.67;;;19.50;89.80;;;;;;5074500;28;20191;-90
2022/06/27 12:32:44;;;;;;;19.25;17.20;;;19.30;88.60;;;;;;5072551;28;20179;-87
2022/06/27 12:35:10;;;;;;;17.95;16.25;;;18.80;87.80;;;;;;5076757;28;20166;-88
2022/06/27 12:37:39;;;;;;;19.92;17.83;;;18.80;88.70;;;;;;5076393;28;20582;-89
2022/06/27 12:40:07;;;;;;;19.05;17.20;;;19.20;89.10;;;;;;5076352;28;20195;-88
2022/06/27 12:42:33;;;;;;;19.95;17.88;;;19.40;89.20;;;;;;5074997;28;20168;-88
2022/06/27 12:44:59;;;;;;;19.75;16.48;;;19.50;88.20;;;;;;5076227;28;20176;-88
2022/06/27 12:47:25;;;;;;;21.35;19.15;;;19.90;89.10;;;;;;5076091;28;20195;-88
2022/06/27 12:49:51;;;;;;;21.00;18.90;;;19.70;87.70;;;;;;5076064;28;20168;-88